Time;durP1;ratioP1;P1;durP2;ratioP2;P2;SDS_P1;SDS_P2;PMS_P1;PMS_P2;Temp;Humidity;BMP_temperature;BMP_pressure;BME280_temperature;BME280_humidity;BME280_pressure;Samples;Min_cycle;Max_cycle;Signal;HPM_P1;HPM_P2
2022/04/13 00:00:27;;;;;;;12.32;8.35;;;18.20;83.70;;;;;;5095632;28;20429;-67
2022/04/13 00:02:53;;;;;;;13.48;8.82;;;18.00;80.50;;;;;;5094657;28;20112;-65
2022/04/13 00:05:19;;;;;;;11.88;8.43;;;18.30;83.70;;;;;;5094626;28;20094;-66
2022/04/13 00:07:45;;;;;;;11.07;8.02;;;18.30;83.60;;;;;;5081871;28;20072;-69
2022/04/13 00:10:11;;;;;;;11.43;7.70;;;18.20;83.70;;;;;;5074704;28;20044;-65
2022/04/13 00:12:37;;;;;;;11.10;8.00;;;18.40;81.20;;;;;;5075605;28;20052;-67
2022/04/13 00:15:03;;;;;;;11.43;7.78;;;18.00;83.60;;;;;;5094232;28;20567;-65
2022/04/13 00:17:29;;;;;;;11.40;7.57;;;18.30;83.70;;;;;;5088736;28;20501;-64
2022/04/13 00:19:55;;;;;;;11.25;8.38;;;17.80;83.40;;;;;;5076283;28;20063;-66
2022/04/13 00:22:21;;;;;;;10.55;8.27;;;18.40;81.10;;;;;;5075365;28;20044;-62
2022/04/13 00:24:47;;;;;;;10.93;8.13;;;18.20;83.60;;;;;;5075551;28;20048;-62
2022/04/13 00:27:13;;;;;;;11.38;8.25;;;18.20;83.50;;;;;;5073238;28;20045;-64
2022/04/13 00:29:38;;;;;;;12.07;8.10;;;18.30;83.60;;;;;;5076658;28;20048;-62
2022/04/13 00:32:04;;;;;;;11.20;7.95;;;18.10;83.80;;;;;;5087348;28;20074;-63
2022/04/13 00:34:30;;;;;;;13.23;8.15;;;18.00;80.80;;;;;;5095402;28;20061;-64
2022/04/13 00:36:57;;;;;;;12.13;8.20;;;;;;;;;;5077301;28;20058;-62
2022/04/13 00:39:26;;;;;;;11.30;8.35;;;18.20;80.80;;;;;;5082175;28;20436;-62
2022/04/13 00:41:57;;;;;;;12.48;8.40;;;18.20;83.50;;;;;;5075779;28;20043;-64
2022/04/13 00:44:22;;;;;;;12.25;7.95;;;18.20;81.10;;;;;;5073759;28;20037;-62
2022/04/13 00:46:48;;;;;;;11.50;7.88;;;17.90;83.30;;;;;;5075335;28;20052;-63
2022/04/13 00:49:14;;;;;;;11.55;7.80;;;18.30;83.60;;;;;;5075185;28;20048;-64
2022/04/13 00:51:40;;;;;;;11.63;7.75;;;18.10;83.70;;;;;;5074333;28;20040;-64
2022/04/13 00:54:06;;;;;;;11.98;8.20;;;18.10;83.40;;;;;;5074609;28;20040;-64
2022/04/13 00:56:31;;;;;;;10.98;7.47;;;18.30;84.10;;;;;;5073804;28;20049;-63
2022/04/13 00:59:06;;;;;;;10.95;7.63;;;18.20;83.50;;;;;;5074529;28;20125;-66
2022/04/13 01:01:32;;;;;;;10.88;7.57;;;18.50;83.80;;;;;;5073083;28;20179;-65
2022/04/13 01:03:57;;;;;;;10.98;8.20;;;18.30;83.50;;;;;;5072671;28;20119;-64
2022/04/13 01:06:23;;;;;;;10.70;7.82;;;18.30;83.40;;;;;;5074330;28;20040;-66
2022/04/13 01:08:49;;;;;;;11.00;7.70;;;18.10;80.50;;;;;;5073282;28;20055;-62
2022/04/13 01:11:16;;;;;;;10.77;7.50;;;18.00;83.40;;;;;;5072701;28;20044;-63
2022/04/13 01:13:42;;;;;;;11.18;7.88;;;18.40;83.60;;;;;;5074381;28;20401;-65
2022/04/13 01:16:07;;;;;;;11.57;7.53;;;18.10;81.60;;;;;;5081759;28;20051;-67
2022/04/13 01:18:34;;;;;;;12.07;8.60;;;;;;;;;;5091270;28;20044;-63
2022/04/13 01:21:00;;;;;;;10.88;7.68;;;18.10;83.40;;;;;;5090297;28;20056;-63
2022/04/13 01:23:26;;;;;;;10.90;7.97;;;18.20;80.60;;;;;;5075037;28;20094;-63
2022/04/13 01:25:53;;;;;;;12.50;7.93;;;18.20;83.30;;;;;;5094049;28;20478;-62
2022/04/13 01:28:18;;;;;;;11.68;7.88;;;18.10;80.60;;;;;;5085709;28;20048;-65
2022/04/13 01:30:44;;;;;;;10.90;7.80;;;18.00;83.20;;;;;;5076607;28;20086;-68
2022/04/13 01:33:10;;;;;;;12.25;8.18;;;17.90;80.50;;;;;;5090699;28;20048;-63
2022/04/13 01:35:36;;;;;;;10.07;7.07;;;18.10;83.30;;;;;;5080022;28;20074;-63
2022/04/13 01:38:02;;;;;;;11.80;7.72;;;18.00;83.30;;;;;;5076039;28;20123;-65
2022/04/13 01:40:27;;;;;;;10.88;7.35;;;17.80;83.30;;;;;;5094173;28;20048;-63
2022/04/13 01:42:53;;;;;;;11.10;7.72;;;18.00;83.30;;;;;;5090819;28;20439;-63
2022/04/13 01:45:22;;;;;;;11.27;7.53;;;17.90;80.50;;;;;;5073860;28;20045;-65
2022/04/13 01:47:50;;;;;;;11.98;7.57;;;18.10;79.40;;;;;;5073445;28;20097;-62
2022/04/13 01:50:17;;;;;;;11.90;7.30;;;;;;;;;;5075016;28;20053;-63
2022/04/13 01:52:43;;;;;;;11.05;7.40;;;18.00;78.60;;;;;;5073706;28;20071;-63
2022/04/13 01:55:09;;;;;;;11.02;7.03;;;18.00;83.30;;;;;;5072527;28;20048;-64
2022/04/13 01:57:36;;;;;;;10.98;7.43;;;18.30;80.90;;;;;;5073771;28;20440;-65
2022/04/13 02:00:06;;;;;;;9.68;7.13;;;18.20;83.20;;;;;;5074487;28;20114;-65
2022/04/13 02:02:32;;;;;;;11.73;6.50;;;;;;;;;;5071014;28;20058;-65
2022/04/13 02:04:58;;;;;;;11.18;7.03;;;18.30;83.70;;;;;;5084716;28;20040;-62
2022/04/13 02:07:23;;;;;;;10.93;7.63;;;18.00;83.40;;;;;;5073553;28;20119;-62
2022/04/13 02:09:49;;;;;;;11.82;7.35;;;17.90;83.30;;;;;;5072577;28;20055;-62
2022/04/13 02:12:15;;;;;;;9.27;6.68;;;18.10;83.50;;;;;;5090369;28;20410;-64
2022/04/13 02:14:41;;;;;;;10.55;7.03;;;18.00;80.40;;;;;;5094050;28;20130;-63
2022/04/13 02:17:07;;;;;;;11.05;6.55;;;18.10;84.00;;;;;;5100427;28;20036;-61
2022/04/13 02:19:32;;;;;;;9.32;6.65;;;18.10;83.60;;;;;;5100134;28;20035;-64
2022/04/13 02:21:58;;;;;;;9.95;6.45;;;18.00;83.60;;;;;;5065737;28;20486;-64
2022/04/13 02:24:24;;;;;;;10.38;6.78;;;;;;;;;;5079913;28;20044;-69
2022/04/13 02:26:50;;;;;;;9.73;6.72;;;18.20;83.60;;;;;;5080073;28;20055;-65
2022/04/13 02:29:15;;;;;;;11.25;7.03;;;18.30;81.10;;;;;;5082479;28;20433;-63
2022/04/13 02:31:41;;;;;;;9.77;6.90;;;17.80;83.40;;;;;;5089801;28;20119;-64
2022/04/13 02:34:07;;;;;;;8.77;6.10;;;18.00;83.60;;;;;;5100029;28;20048;-62
2022/04/13 02:36:33;;;;;;;10.55;6.80;;;18.30;80.80;;;;;;5100342;28;20044;-65
2022/04/13 02:38:59;;;;;;;10.55;6.10;;;17.80;83.60;;;;;;5100211;28;20050;-65
2022/04/13 02:41:24;;;;;;;9.50;6.80;;;18.20;83.50;;;;;;5097550;28;20504;-63
2022/04/13 02:43:50;;;;;;;9.25;6.18;;;18.20;83.80;;;;;;5081293;28;20036;-64
2022/04/13 02:46:16;;;;;;;9.52;6.65;;;18.10;80.70;;;;;;5085920;28;20405;-64
2022/04/13 02:48:42;;;;;;;10.85;6.32;;;18.10;81.10;;;;;;5099822;28;20036;-62
2022/04/13 02:51:07;;;;;;;10.02;6.22;;;18.10;83.80;;;;;;5099721;28;20039;-62
2022/04/13 02:53:33;;;;;;;9.80;6.13;;;18.20;81.10;;;;;;5086888;28;20051;-64
2022/04/13 02:55:59;;;;;;;8.85;5.90;;;18.10;83.80;;;;;;5079764;28;20044;-63
2022/04/13 02:58:25;;;;;;;10.13;6.78;;;18.10;84.20;;;;;;5079853;28;20048;-64
2022/04/13 03:00:50;;;;;;;9.85;5.68;;;18.10;83.80;;;;;;5079494;28;20086;-64
2022/04/13 03:03:16;;;;;;;8.88;5.93;;;18.20;83.90;;;;;;5080994;28;20119;-62
2022/04/13 03:05:43;;;;;;;9.27;6.07;;;18.10;84.20;;;;;;5079806;28;20068;-63
2022/04/13 03:08:08;;;;;;;10.57;6.13;;;17.80;83.60;;;;;;5079726;28;20063;-64
2022/04/13 03:10:34;;;;;;;9.48;5.88;;;18.30;84.30;;;;;;5078211;28;20057;-63
2022/04/13 03:13:00;;;;;;;8.52;5.65;;;18.20;84.20;;;;;;5079658;28;20052;-62
2022/04/13 03:15:26;;;;;;;9.38;6.00;;;17.80;83.70;;;;;;5080840;28;20044;-62
2022/04/13 03:17:51;;;;;;;9.32;5.47;;;18.00;83.90;;;;;;5079618;28;20397;-63
2022/04/13 03:20:18;;;;;;;9.57;5.75;;;18.10;81.90;;;;;;5079862;28;20109;-62
2022/04/13 03:22:44;;;;;;;8.50;5.53;;;18.30;84.40;;;;;;5084968;28;20086;-64
2022/04/13 03:25:10;;;;;;;8.50;5.65;;;17.80;84.00;;;;;;5090022;28;20394;-63
2022/04/13 03:27:37;;;;;;;8.98;5.75;;;18.20;84.10;;;;;;5076603;28;20055;-63
2022/04/13 03:30:04;;;;;;;8.38;5.65;;;18.10;84.60;;;;;;5076903;28;20048;-62
2022/04/13 03:32:37;;;;;;;10.60;5.63;;;18.20;80.90;;;;;;5075900;28;20049;-64
2022/04/13 03:35:03;;;;;;;;;;;18.10;81.50;;;;;;5078064;28;20036;-65
2022/04/13 03:37:29;;;;;;;9.23;5.40;;;18.00;81.40;;;;;;5083904;28;19915;-63
2022/04/13 03:39:55;;;;;;;7.60;5.15;;;17.80;84.00;;;;;;5096419;28;20040;-62
2022/04/13 03:42:20;;;;;;;9.10;5.72;;;18.10;81.30;;;;;;5096091;28;20043;-64
2022/04/13 03:44:46;;;;;;;7.80;5.35;;;18.00;84.10;;;;;;5096290;28;20106;-64
2022/04/13 03:47:12;;;;;;;9.40;5.63;;;18.10;84.80;;;;;;5091334;28;20056;-62
2022/04/13 03:49:38;;;;;;;8.75;5.75;;;18.10;81.10;;;;;;5096277;28;20051;-64
2022/04/13 03:52:04;;;;;;;8.25;5.45;;;18.20;84.30;;;;;;5096101;28;20048;-63
2022/04/13 03:54:30;;;;;;;9.48;5.80;;;18.20;81.70;;;;;;5088064;28;20083;-62
2022/04/13 03:56:55;;;;;;;11.70;5.72;;;17.90;84.10;;;;;;5080745;28;20075;-62
2022/04/13 03:59:22;;;;;;;9.70;5.85;;;18.00;84.60;;;;;;5094740;28;20131;-63
2022/04/13 04:01:48;;;;;;;8.10;5.85;;;18.00;84.30;;;;;;5077929;28;20052;-64
2022/04/13 04:04:13;;;;;;;7.78;5.60;;;17.90;84.20;;;;;;5061079;28;20496;-62
2022/04/13 04:06:39;;;;;;;9.30;5.85;;;18.00;84.20;;;;;;5084793;28;20087;-66
2022/04/13 04:09:05;;;;;;;8.43;5.82;;;18.10;84.30;;;;;;5093745;28;20157;-62
2022/04/13 04:11:31;;;;;;;8.80;5.53;;;18.00;84.50;;;;;;5086679;28;20056;-61
2022/04/13 04:13:56;;;;;;;10.57;6.88;;;18.10;84.60;;;;;;5074402;28;20110;-61
2022/04/13 04:16:22;;;;;;;8.32;5.53;;;18.10;84.30;;;;;;5075145;28;20047;-61
2022/04/13 04:18:50;;;;;;;9.98;6.32;;;18.10;84.40;;;;;;5085673;28;20028;-61
2022/04/13 04:21:16;;;;;;;9.35;5.93;;;18.00;80.40;;;;;;5077909;28;20048;-63
2022/04/13 04:23:42;;;;;;;9.25;5.70;;;18.00;84.40;;;;;;5094120;28;20195;-61
2022/04/13 04:26:08;;;;;;;10.05;5.85;;;18.20;82.00;;;;;;5077212;28;20089;-62
2022/04/13 04:28:34;;;;;;;8.60;5.55;;;17.80;84.20;;;;;;5090388;28;20047;-62
2022/04/13 04:31:00;;;;;;;9.85;5.85;;;18.00;84.40;;;;;;5075125;28;20048;-62
2022/04/13 04:33:26;;;;;;;7.80;5.68;;;;;;;;;;5073937;28;20051;-62
2022/04/13 04:35:52;;;;;;;10.65;5.75;;;18.00;84.50;;;;;;5075145;28;20469;-62
2022/04/13 04:38:20;;;;;;;8.38;5.63;;;17.90;81.60;;;;;;5074983;28;20072;-62
2022/04/13 04:40:46;;;;;;;9.98;6.05;;;18.00;84.50;;;;;;5074776;28;20044;-62
2022/04/13 04:43:12;;;;;;;10.10;5.88;;;18.00;81.60;;;;;;5074693;28;20050;-61
2022/04/13 04:45:38;;;;;;;10.45;5.93;;;;;;;;;;5075214;28;20055;-63
2022/04/13 04:48:04;;;;;;;10.32;5.90;;;18.00;84.70;;;;;;5074528;28;20043;-61
2022/04/13 04:50:30;;;;;;;8.38;5.72;;;18.30;82.10;;;;;;5076294;28;20437;-62
2022/04/13 04:52:56;;;;;;;8.63;5.63;;;18.00;84.50;;;;;;5074344;28;20056;-62
2022/04/13 04:55:22;;;;;;;9.68;5.68;;;18.10;81.90;;;;;;5074422;28;20106;-62
2022/04/13 04:57:48;;;;;;;9.60;5.35;;;18.10;84.60;;;;;;5074731;28;20040;-62
2022/04/13 05:00:17;;;;;;;8.75;5.68;;;17.90;84.40;;;;;;5074658;28;20045;-62
2022/04/13 05:02:44;;;;;;;9.82;6.05;;;17.90;84.50;;;;;;5083963;28;20040;-62
2022/04/13 05:05:09;;;;;;;8.82;6.30;;;18.00;84.50;;;;;;5074470;28;20173;-62
2022/04/13 05:07:35;;;;;;;8.40;5.55;;;18.00;82.00;;;;;;5074538;28;20118;-62
2022/04/13 05:10:01;;;;;;;9.80;5.90;;;;;;;;;;5074737;28;20059;-64
2022/04/13 05:12:27;;;;;;;9.75;5.95;;;18.00;84.70;;;;;;5084423;28;20113;-62
2022/04/13 05:14:55;;;;;;;9.40;6.10;;;18.00;84.80;;;;;;5086434;28;20036;-63
2022/04/13 05:17:24;;;;;;;10.27;6.13;;;18.00;84.60;;;;;;5074334;28;20470;-62
2022/04/13 05:19:50;;;;;;;9.13;6.13;;;18.10;84.70;;;;;;5085505;28;20390;-61
2022/04/13 05:22:16;;;;;;;9.85;5.90;;;18.00;84.50;;;;;;5091898;28;20055;-62
2022/04/13 05:24:42;;;;;;;8.80;6.13;;;18.30;84.70;;;;;;5094384;28;20036;-62
2022/04/13 05:27:08;;;;;;;8.80;6.05;;;18.10;82.00;;;;;;5094125;28;20559;-61
2022/04/13 05:29:34;;;;;;;10.05;6.57;;;18.20;84.60;;;;;;5076422;28;20041;-62
2022/04/13 05:32:00;;;;;;;9.38;6.20;;;18.20;84.60;;;;;;5074425;28;20509;-61
2022/04/13 05:34:26;;;;;;;9.90;6.55;;;18.00;84.50;;;;;;5091327;28;20101;-62
2022/04/13 05:36:51;;;;;;;9.98;6.38;;;18.00;84.60;;;;;;5082377;28;20045;-62
2022/04/13 05:39:17;;;;;;;10.77;6.60;;;18.20;82.00;;;;;;5073987;28;20041;-62
2022/04/13 05:41:43;;;;;;;11.25;6.40;;;18.00;84.50;;;;;;5073862;28;20478;-62
2022/04/13 05:44:08;;;;;;;9.23;5.75;;;18.10;81.90;;;;;;5083262;28;20543;-61
2022/04/13 05:46:34;;;;;;;10.70;6.65;;;18.00;84.40;;;;;;5093733;28;20040;-62
2022/04/13 05:49:01;;;;;;;12.10;6.80;;;18.20;84.70;;;;;;5093753;28;20389;-61
2022/04/13 05:51:26;;;;;;;10.82;6.97;;;18.20;82.00;;;;;;5093418;28;20119;-62
2022/04/13 05:53:52;;;;;;;10.65;6.53;;;;;;;;;;5084351;28;20479;-63
2022/04/13 05:56:18;;;;;;;11.20;6.43;;;18.30;82.00;;;;;;5093949;28;20062;-62
2022/04/13 05:58:44;;;;;;;8.70;6.00;;;18.20;84.60;;;;;;5093949;28;20474;-62
2022/04/13 06:01:09;;;;;;;10.52;7.03;;;18.10;84.60;;;;;;5093890;28;20445;-61
2022/04/13 06:03:35;;;;;;;10.57;6.68;;;18.20;81.80;;;;;;5093904;28;20127;-61
2022/04/13 06:06:01;;;;;;;12.18;7.20;;;18.10;84.50;;;;;;5075564;28;20368;-62
2022/04/13 06:08:27;;;;;;;10.18;7.05;;;18.10;81.90;;;;;;5073309;28;20044;-62
2022/04/13 06:10:52;;;;;;;10.70;6.55;;;18.30;84.90;;;;;;5083991;28;20093;-62
2022/04/13 06:13:18;;;;;;;10.23;6.85;;;18.20;84.60;;;;;;5092797;28;20089;-62
2022/04/13 06:15:44;;;;;;;11.65;7.05;;;18.20;84.60;;;;;;5084564;28;20390;-62
2022/04/13 06:18:11;;;;;;;23.58;7.20;;;18.30;84.80;;;;;;5073460;28;20048;-62
2022/04/13 06:20:39;;;;;;;12.13;6.63;;;18.30;84.90;;;;;;5073447;28;20048;-62
2022/04/13 06:23:05;;;;;;;11.30;7.15;;;18.60;82.20;;;;;;5073509;28;20040;-62
2022/04/13 06:25:32;;;;;;;11.32;7.03;;;18.40;84.90;;;;;;5074945;28;20045;-62
2022/04/13 06:27:58;;;;;;;11.32;6.78;;;18.40;85.00;;;;;;5076074;28;20049;-62
2022/04/13 06:30:23;;;;;;;13.05;7.00;;;18.50;85.10;;;;;;5073107;28;20075;-62
2022/04/13 06:32:49;;;;;;;11.35;7.05;;;18.40;85.00;;;;;;5072971;28;20047;-62
2022/04/13 06:35:16;;;;;;;12.70;6.60;;;18.50;82.60;;;;;;5073315;28;20068;-62
2022/04/13 06:37:43;;;;;;;11.07;7.10;;;18.60;85.30;;;;;;5084261;28;20056;-61
2022/04/13 06:40:09;;;;;;;16.70;7.13;;;18.40;82.50;;;;;;5093522;28;20048;-62
2022/04/13 06:42:37;;;;;;;12.82;7.30;;;18.60;85.20;;;;;;5093492;28;20092;-62
2022/04/13 06:45:13;;;;;;;12.20;7.82;;;18.70;82.30;;;;;;5080388;28;20041;-61
2022/04/13 06:47:39;;;;;;;9.93;6.65;;;18.60;85.10;;;;;;5075148;28;20044;-62
2022/04/13 06:50:05;;;;;;;10.65;7.47;;;18.60;82.00;;;;;;5072934;28;20044;-61
2022/04/13 06:52:34;;;;;;;12.27;7.85;;;18.70;82.10;;;;;;5073956;28;20071;-61
2022/04/13 06:55:00;;;;;;;12.38;7.82;;;19.00;85.10;;;;;;5072811;28;20051;-62
2022/04/13 06:57:26;;;;;;;10.10;7.07;;;18.80;85.00;;;;;;5073692;28;20040;-61
2022/04/13 06:59:52;;;;;;;12.68;7.43;;;19.10;85.00;;;;;;5078931;28;20119;-62
2022/04/13 07:02:17;;;;;;;10.88;8.10;;;18.70;84.70;;;;;;5079579;28;20049;-62
2022/04/13 07:04:43;;;;;;;12.18;7.65;;;19.10;84.90;;;;;;5076917;28;20474;-62
2022/04/13 07:07:09;;;;;;;12.23;7.63;;;19.10;85.10;;;;;;5075210;28;20136;-62
2022/04/13 07:09:35;;;;;;;12.18;8.07;;;19.10;82.00;;;;;;5085139;28;20143;-62
2022/04/13 07:12:01;;;;;;;13.73;7.60;;;19.40;84.70;;;;;;5096761;28;20493;-62
2022/04/13 07:14:26;;;;;;;12.63;7.72;;;19.20;85.00;;;;;;5096943;28;20047;-62
2022/04/13 07:16:52;;;;;;;11.88;7.85;;;19.50;85.10;;;;;;5096925;28;20470;-62
2022/04/13 07:19:18;;;;;;;11.80;7.57;;;19.50;84.70;;;;;;5082700;28;20474;-62
2022/04/13 07:21:44;;;;;;;12.63;7.72;;;19.50;84.80;;;;;;5096524;28;20071;-62
2022/04/13 07:24:10;;;;;;;12.13;7.57;;;19.60;84.80;;;;;;5096428;28;20040;-61
2022/04/13 07:26:37;;;;;;;11.68;7.93;;;19.70;84.70;;;;;;5096403;28;20048;-61
2022/04/13 07:29:02;;;;;;;11.48;7.40;;;19.80;82.10;;;;;;5096191;28;20474;-61
2022/04/13 07:31:29;;;;;;;12.25;8.05;;;19.60;84.60;;;;;;5081937;28;20119;-70
2022/04/13 07:33:56;;;;;;;13.45;7.57;;;19.90;84.70;;;;;;5093093;28;20051;-69
2022/04/13 07:36:22;;;;;;;12.18;7.63;;;19.90;84.60;;;;;;5080964;28;20398;-69
2022/04/13 07:38:50;;;;;;;10.55;7.75;;;19.60;84.60;;;;;;5080867;28;20396;-63
2022/04/13 07:41:16;;;;;;;14.18;8.43;;;20.10;84.70;;;;;;5097330;28;20358;-69
2022/04/13 07:43:43;;;;;;;14.93;8.10;;;20.00;84.40;;;;;;5081677;28;20067;-69
2022/04/13 07:46:10;;;;;;;12.50;7.70;;;20.20;81.80;;;;;;5076064;28;20044;-62
2022/04/13 07:48:35;;;;;;;11.88;8.20;;;20.40;84.40;;;;;;5075832;28;20410;-62
2022/04/13 07:51:01;;;;;;;14.32;8.13;;;20.30;84.70;;;;;;5082557;28;20127;-62
2022/04/13 07:53:27;;;;;;;12.45;8.02;;;;;;;;;;5077646;28;20486;-62
2022/04/13 07:55:53;;;;;;;14.93;8.45;;;20.60;84.10;;;;;;5076177;28;20132;-62
2022/04/13 07:58:18;;;;;;;14.30;7.88;;;20.70;84.00;;;;;;5074365;28;20472;-62
2022/04/13 08:00:44;;;;;;;14.48;7.85;;;20.20;83.60;;;;;;5075355;28;20044;-62
2022/04/13 08:03:11;;;;;;;14.23;7.95;;;;;;;;;;5074865;28;20554;-63
2022/04/13 08:05:38;;;;;;;12.38;7.40;;;20.80;83.60;;;;;;5076136;28;20098;-61
2022/04/13 08:08:04;;;;;;;14.00;7.65;;;20.90;83.60;;;;;;5074133;28;20088;-62
2022/04/13 08:10:30;;;;;;;11.18;6.68;;;20.80;83.20;;;;;;5088888;28;20083;-63
2022/04/13 08:12:56;;;;;;;13.07;7.55;;;21.00;83.20;;;;;;5075045;28;20478;-62
2022/04/13 08:15:21;;;;;;;13.50;7.07;;;21.10;83.10;;;;;;5076833;28;20513;-62
2022/04/13 08:17:47;;;;;;;12.60;6.80;;;21.20;83.10;;;;;;5075444;28;20530;-62
2022/04/13 08:20:14;;;;;;;10.77;7.10;;;21.20;82.90;;;;;;5073454;28;20472;-62
2022/04/13 08:22:40;;;;;;;13.90;7.45;;;21.20;80.10;;;;;;5075044;28;20094;-62
2022/04/13 08:25:06;;;;;;;12.32;7.00;;;21.40;82.80;;;;;;5080672;28;20044;-62
2022/04/13 08:27:31;;;;;;;11.05;6.88;;;21.10;82.50;;;;;;5082690;28;20055;-64
2022/04/13 08:29:57;;;;;;;11.75;7.28;;;21.20;79.80;;;;;;5074732;28;20055;-61
2022/04/13 08:32:23;;;;;;;10.13;6.43;;;;;;;;;;5081564;28;20058;-65
2022/04/13 08:34:51;;;;;;;12.13;6.72;;;21.40;82.70;;;;;;5094976;28;20118;-61
2022/04/13 08:37:18;;;;;;;10.52;6.40;;;21.20;82.60;;;;;;5078607;28;20447;-62
2022/04/13 08:47:23;;;;;;;12.15;6.72;;;21.10;78.10;;;;;;5086557;28;20050;-63
2022/04/13 08:49:50;;;;;;;10.77;6.45;;;21.30;83.00;;;;;;5091821;28;20397;-63
2022/04/13 08:52:24;;;;;;;12.10;6.20;;;21.10;80.60;;;;;;5094988;28;20467;-67
2022/04/13 08:54:58;;;;;;;10.88;6.22;;;21.10;83.00;;;;;;5077429;28;20049;-67
2022/04/13 08:57:25;;;;;;;9.35;5.82;;;21.40;79.00;;;;;;5074761;28;20482;-61
2022/04/13 09:00:15;;;;;;;9.25;5.82;;;21.20;83.10;;;;;;5078402;28;20040;-61
2022/04/13 09:02:53;;;;;;;13.25;6.18;;;21.10;82.80;;;;;;5092930;28;20080;-65
2022/04/13 09:05:30;;;;;;;10.82;6.10;;;21.00;83.10;;;;;;5087972;28;20508;-63
2022/04/13 09:08:18;;;;;;;10.48;5.40;;;21.10;83.10;;;;;;5074272;28;20466;-62
2022/04/13 09:10:44;;;;;;;18.90;6.20;;;20.90;83.40;;;;;;5072983;28;20118;-63
2022/04/13 09:13:10;;;;;;;14.60;6.13;;;20.70;83.20;;;;;;5075272;28;20048;-63
2022/04/13 09:15:39;;;;;;;16.83;5.57;;;20.90;83.30;;;;;;5094321;28;20059;-63
2022/04/13 09:18:08;;;;;;;11.52;5.47;;;21.10;83.30;;;;;;5090918;28;20540;-63
2022/04/13 09:20:34;;;;;;;13.05;5.88;;;21.00;83.30;;;;;;5094476;28;20513;-62
2022/04/13 09:23:00;;;;;;;12.07;5.45;;;21.00;83.20;;;;;;5094447;28;20079;-62
2022/04/13 09:25:27;;;;;;;12.13;5.30;;;20.70;80.30;;;;;;5093675;28;20082;-62
2022/04/13 09:27:53;;;;;;;13.13;5.28;;;21.20;83.30;;;;;;5092225;28;20044;-63
2022/04/13 09:30:18;;;;;;;10.32;5.45;;;21.10;83.10;;;;;;5076377;28;20071;-63
2022/04/13 09:32:45;;;;;;;9.05;5.38;;;21.00;83.20;;;;;;5074022;28;20106;-62
2022/04/13 09:35:11;;;;;;;10.18;5.38;;;;;;;;;;5056418;28;20068;-62
2022/04/13 09:37:37;;;;;;;11.07;5.32;;;21.10;83.00;;;;;;5074008;28;20052;-63
2022/04/13 09:40:03;;;;;;;10.95;5.15;;;21.30;80.10;;;;;;5072035;28;20047;-62
2022/04/13 09:42:28;;;;;;;13.52;5.72;;;21.30;83.00;;;;;;5055800;28;20056;-64
2022/04/13 09:44:56;;;;;;;8.85;4.97;;;21.30;83.00;;;;;;5073619;28;20040;-63
2022/04/13 09:47:22;;;;;;;8.25;5.20;;;21.30;81.90;;;;;;5072312;28;20048;-62
2022/04/13 09:49:52;;;;;;;9.15;4.97;;;21.30;83.00;;;;;;5074680;28;20052;-62
2022/04/13 09:52:20;;;;;;;11.50;5.60;;;21.20;80.20;;;;;;5087958;28;20521;-62
2022/04/13 09:54:46;;;;;;;9.93;5.57;;;21.30;82.90;;;;;;5092593;28;20048;-63
2022/04/13 09:57:25;;;;;;;10.35;5.97;;;21.40;83.70;;;;;;5092293;28;20051;-63
2022/04/13 09:59:55;;;;;;;12.63;6.40;;;21.40;83.20;;;;;;5093308;28;20489;-62
2022/04/13 10:02:34;;;;;;;12.27;5.35;;;;;;;;;;5073132;28;20056;-63
2022/04/13 10:05:00;;;;;;;10.70;7.30;;;21.50;84.00;;;;;;5070011;28;20040;-62
2022/04/13 10:07:26;;;;;;;11.07;6.75;;;21.20;80.90;;;;;;5073650;28;20116;-63
2022/04/13 10:09:52;;;;;;;9.90;7.47;;;21.40;84.30;;;;;;5092597;28;20501;-64
2022/04/13 10:12:17;;;;;;;11.30;7.45;;;21.20;81.20;;;;;;5090958;28;20062;-66
2022/04/13 10:14:44;;;;;;;14.15;7.80;;;21.50;85.30;;;;;;5073990;28;20083;-66
2022/04/13 10:17:15;;;;;;;12.20;8.10;;;21.30;85.00;;;;;;5073464;28;20083;-70
2022/04/13 10:19:42;;;;;;;13.18;8.52;;;21.30;82.00;;;;;;5073550;28;20044;-69
2022/04/13 10:22:08;;;;;;;14.88;7.88;;;21.40;85.40;;;;;;5074755;28;20052;-62
2022/04/13 10:24:35;;;;;;;14.15;7.82;;;21.40;82.00;;;;;;5093167;28;20040;-64
2022/04/13 10:27:10;;;;;;;11.70;7.90;;;21.60;85.40;;;;;;5073407;28;20115;-62
2022/04/13 10:40:42;;;;;;;15.18;7.43;;;21.50;82.10;;;;;;5090048;28;20467;-62
2022/04/13 10:43:11;;;;;;;14.95;6.80;;;21.40;82.80;;;;;;5082742;28;20490;-63
2022/04/13 10:45:39;;;;;;;16.88;7.25;;;21.50;85.30;;;;;;5077689;28;20052;-61
2022/04/13 10:48:09;;;;;;;14.30;6.55;;;21.80;85.50;;;;;;5097450;28;20055;-66
2022/04/13 10:51:08;;;;;;;17.85;6.50;;;21.50;85.50;;;;;;5084268;28;20048;-63
2022/04/13 10:53:42;;;;;;;10.07;5.18;;;21.40;82.40;;;;;;5074821;28;20057;-61
2022/04/13 10:56:09;;;;;;;13.88;6.30;;;22.00;81.40;;;;;;5042305;28;20516;-61
2022/04/13 10:59:02;;;;;;;12.02;5.38;;;22.00;80.70;;;;;;5040652;28;20060;-65
2022/04/13 11:01:31;;;;;;;11.60;5.60;;;21.90;85.30;;;;;;5092115;28;20052;-61
2022/04/13 11:03:56;;;;;;;9.13;5.47;;;22.00;85.20;;;;;;5094174;28;20063;-62
2022/04/13 11:06:22;;;;;;;15.95;5.82;;;22.20;85.40;;;;;;5062098;28;20043;-61
2022/04/13 11:09:13;;;;;;;8.95;4.68;;;22.10;85.20;;;;;;5074001;28;20070;-62
2022/04/13 11:11:40;;;;;;;13.60;5.05;;;21.90;84.90;;;;;;5068464;28;20140;-62
2022/04/13 11:14:20;;;;;;;12.32;4.88;;;22.00;85.00;;;;;;5041394;28;20060;-62
2022/04/13 11:16:46;;;;;;;7.70;4.35;;;21.60;80.70;;;;;;5085190;28;20083;-62
2022/04/13 11:19:12;;;;;;;8.50;4.60;;;21.90;84.70;;;;;;5085929;28;20094;-62
2022/04/13 11:22:04;;;;;;;9.38;4.93;;;21.90;84.90;;;;;;5086420;28;20060;-62
2022/04/13 11:24:36;;;;;;;10.70;4.28;;;22.00;84.50;;;;;;5090936;28;20055;-64
2022/04/13 11:27:03;;;;;;;9.48;4.95;;;22.00;84.60;;;;;;5094405;28;20499;-62
2022/04/13 11:29:45;;;;;;;9.88;4.68;;;22.20;84.70;;;;;;5094473;28;20052;-63
2022/04/13 11:32:12;;;;;;;10.18;4.35;;;22.10;81.70;;;;;;5089079;28;20048;-63
2022/04/13 11:34:42;;;;;;;8.40;4.82;;;22.10;84.40;;;;;;5093805;28;20036;-62
2022/04/13 11:37:12;;;;;;;6.95;3.92;;;22.30;84.30;;;;;;5096843;28;20417;-63
2022/04/13 11:39:56;;;;;;;11.15;4.97;;;22.30;84.50;;;;;;5091543;28;20047;-69
2022/04/13 11:42:32;;;;;;;8.13;3.90;;;22.10;84.20;;;;;;5077467;28;20109;-67
2022/04/13 11:45:13;;;;;;;9.35;4.20;;;22.10;80.70;;;;;;5075823;28;20494;-62
2022/04/13 11:47:40;;;;;;;9.25;4.20;;;22.20;84.20;;;;;;5074512;28;20083;-62
2022/04/13 11:50:18;;;;;;;9.07;4.05;;;22.30;84.40;;;;;;5077608;28;20040;-63
2022/04/13 11:53:03;;;;;;;7.78;3.55;;;22.10;84.20;;;;;;5076062;28;20136;-62
2022/04/13 11:55:40;;;;;;;9.07;4.22;;;22.30;84.40;;;;;;5093737;28;20044;-62
2022/04/13 11:58:09;;;;;;;7.72;3.47;;;22.30;80.60;;;;;;5096116;28;20040;-62
2022/04/13 12:00:56;;;;;;;6.10;3.00;;;22.20;84.30;;;;;;5093902;28;20472;-62
2022/04/13 12:03:30;;;;;;;6.97;3.25;;;22.30;85.20;;;;;;5096106;28;20079;-63
2022/04/13 12:06:07;;;;;;;5.82;2.88;;;22.00;84.10;;;;;;5096022;28;20452;-62
2022/04/13 12:08:37;;;;;;;7.25;2.92;;;22.20;84.30;;;;;;5079048;28;20401;-70
2022/04/13 12:11:04;;;;;;;7.57;3.47;;;22.10;83.40;;;;;;5040734;28;20059;-68
2022/04/13 12:13:33;;;;;;;7.90;3.20;;;22.10;84.20;;;;;;5093963;28;20139;-70
2022/04/13 12:15:59;;;;;;;6.30;2.63;;;22.20;84.20;;;;;;5095472;28;20047;-70
2022/04/13 12:18:25;;;;;;;5.88;2.72;;;22.00;84.00;;;;;;5096038;28;20052;-69
2022/04/13 12:20:52;;;;;;;7.32;2.60;;;22.10;84.00;;;;;;5095700;28;20050;-69
2022/04/13 12:23:23;;;;;;;6.85;2.58;;;22.10;81.60;;;;;;5093665;28;20047;-70
2022/04/13 12:25:50;;;;;;;5.38;2.50;;;22.00;80.00;;;;;;5076242;28;20165;-70
2022/04/13 12:28:16;;;;;;;5.38;2.60;;;21.90;84.00;;;;;;5084335;28;20097;-70
2022/04/13 12:30:42;;;;;;;4.47;2.45;;;22.20;84.20;;;;;;5095551;28;20040;-70
2022/04/13 12:33:21;;;;;;;8.07;2.65;;;22.00;84.10;;;;;;5095402;28;20392;-69
2022/04/13 12:35:48;;;;;;;5.68;2.40;;;22.10;81.70;;;;;;5095428;28;20101;-69
2022/04/13 12:38:21;;;;;;;6.80;2.17;;;21.90;84.10;;;;;;5089205;28;20044;-71
2022/04/13 12:40:47;;;;;;;5.80;2.65;;;22.10;84.20;;;;;;5076764;28;20048;-69
2022/04/13 12:43:26;;;;;;;6.25;2.42;;;21.90;84.20;;;;;;5095249;28;20087;-70
2022/04/13 12:45:51;;;;;;;4.75;2.03;;;21.90;81.90;;;;;;5095316;28;20048;-70
2022/04/13 12:48:17;;;;;;;7.32;2.13;;;21.90;84.20;;;;;;5093282;28;20105;-67
2022/04/13 12:51:02;;;;;;;4.32;2.00;;;21.90;84.60;;;;;;5075980;28;20429;-70
2022/04/13 12:53:28;;;;;;;4.22;1.70;;;21.90;84.30;;;;;;5075351;28;20040;-71
2022/04/13 12:55:54;;;;;;;4.60;1.80;;;21.90;81.00;;;;;;5074847;28;20083;-70
2022/04/13 12:58:20;;;;;;;3.47;1.83;;;22.10;81.90;;;;;;5081021;28;20105;-70
2022/04/13 13:00:53;;;;;;;3.60;2.00;;;21.90;83.00;;;;;;5087999;28;20040;-70
2022/04/13 13:03:20;;;;;;;3.63;1.98;;;21.90;84.40;;;;;;5093655;28;20059;-70
2022/04/13 13:05:45;;;;;;;4.57;1.85;;;21.80;84.50;;;;;;5094817;28;20079;-69